Time,TemperatureF,DewpointF,PressureIn,WindDirection,WindDirectionDegrees,WindSpeedMPH,WindSpeedGustMPH,Humidity,HourlyPrecipIn,Conditions,Clouds,dailyrainin,SoftwareType,DateUTC
2013-10-28 00:02:00,68.1,65.3,29.98,ENE,70,0.0,3.0,91,0.00,,,0.00,WUHU216DAVISVP2,2013-10-28 05:02:00,
2013-10-28 00:07:00,68.1,65.3,29.98,ENE,72,0.0,3.0,91,0.00,,,0.00,WUHU216DAVISVP2,2013-10-28 05:07:00,
2013-10-28 00:12:00,68.2,65.4,29.97,ENE,77,0.0,2.7,91,0.00,,,0.00,WUHU216DAVISVP2,2013-10-28 05:12:00,
2013-10-28 00:17:00,68.2,65.4,29.98,ENE,71,0.0,2.7,91,0.00,,,0.00,WUHU216DAVISVP2,2013-10-28 05:17:00,
2013-10-28 00:22:00,68.3,65.6,29.97,ENE,71,0.0,2.7,91,0.00,,,0.00,WUHU216DAVISVP2,2013-10-28 05:22:00,
2013-10-28 00:27:00,68.3,65.6,29.97,ENE,71,1.4,2.7,91,0.00,,,0.00,WUHU216DAVISVP2,2013-10-28 05:27:00,
2013-10-28 00:32:00,68.3,65.6,29.97,ENE,71,0.0,2.7,91,0.00,,,0.00,WUHU216DAVISVP2,2013-10-28 05:32:00,
2013-10-28 00:37:00,68.2,65.5,29.97,East,85,1.4,4.1,91,0.00,,,0.00,WUHU216DAVISVP2,2013-10-28 05:37:00,
2013-10-28 00:42:00,68.3,65.5,29.97,East,95,0.0,6.8,91,0.00,,,0.00,WUHU216DAVISVP2,2013-10-28 05:42:00,
2013-10-28 00:47:00,68.2,65.4,29.96,ENE,70,0.0,6.8,91,0.00,,,0.00,WUHU216DAVISVP2,2013-10-28 05:47:00,
2013-10-28 00:52:00,68.3,65.5,29.96,East,91,1.4,5.0,91,0.00,,,0.00,WUHU216DAVISVP2,2013-10-28 05:52:00,
2013-10-28 00:57:00,68.3,65.5,29.97,East,87,1.4,5.0,91,0.00,,,0.00,WUHU216DAVISVP2,2013-10-28 05:57:00,
2013-10-28 01:02:00,68.3,65.8,29.96,East,87,0.0,4.1,92,0.00,,,0.00,WUHU216DAVISVP2,2013-10-28 06:02:00,
2013-10-28 01:07:00,68.3,65.8,29.96,East,87,0.0,3.0,92,0.00,,,0.00,WUHU216DAVISVP2,2013-10-28 06:07:00,
2013-10-28 01:12:00,68.4,65.9,29.96,East,87,0.0,3.0,92,0.00,,,0.00,WUHU216DAVISVP2,2013-10-28 06:12:00,
2013-10-28 01:17:00,68.4,66.0,29.96,East,87,1.4,2.7,92,0.00,,,0.00,WUHU216DAVISVP2,2013-10-28 06:17:00,
2013-10-28 01:22:00,68.6,66.2,29.96,East,89,1.4,2.7,92,0.00,,,0.00,WUHU216DAVISVP2,2013-10-28 06:22:00,
2013-10-28 01:27:00,68.8,66.4,29.96,East,89,1.4,4.1,92,0.00,,,0.00,WUHU216DAVISVP2,2013-10-28 06:27:00,
2013-10-28 01:32:00,68.9,66.5,29.96,East,93,1.4,4.1,92,0.00,,,0.00,WUHU216DAVISVP2,2013-10-28 06:32:00,
2013-10-28 01:37:00,69.0,66.5,29.96,ESE,105,0.0,3.0,92,0.00,,,0.00,WUHU216DAVISVP2,2013-10-28 06:37:00,
2013-10-28 01:42:00,69.0,66.5,29.96,ESE,116,1.4,3.0,92,0.00,,,0.00,WUHU216DAVISVP2,2013-10-28 06:42:00,
2013-10-28 01:47:00,69.1,66.6,29.96,ESE,112,0.0,2.7,92,0.00,,,0.00,WUHU216DAVISVP2,2013-10-28 06:47:00,
2013-10-28 01:52:00,69.1,66.6,29.96,ESE,112,1.4,2.7,92,0.00,,,0.00,WUHU216DAVISVP2,2013-10-28 06:52:00,
2013-10-28 01:57:00,69.1,66.6,29.96,ESE,110,1.4,2.7,92,0.00,,,0.00,WUHU216DAVISVP2,2013-10-28 06:57:00,
2013-10-28 02:02:00,69.1,66.6,29.96,ESE,110,0.0,2.7,92,0.00,,,0.00,WUHU216DAVISVP2,2013-10-28 07:02:00,
2013-10-28 02:07:00,69.1,66.6,29.96,ESE,110,1.4,2.7,92,0.00,,,0.00,WUHU216DAVISVP2,2013-10-28 07:07:00,
2013-10-28 02:12:00,69.2,66.7,29.96,East,100,2.7,4.1,92,0.00,,,0.00,WUHU216DAVISVP2,2013-10-28 07:12:00,
2013-10-28 02:17:00,69.2,66.7,29.96,ESE,102,1.4,4.1,92,0.00,,,0.00,WUHU216DAVISVP2,2013-10-28 07:17:00,
2013-10-28 02:22:00,69.1,66.7,29.96,ESE,102,1.4,4.1,92,0.00,,,0.00,WUHU216DAVISVP2,2013-10-28 07:22:00,
2013-10-28 02:27:00,69.1,66.7,29.96,East,95,1.4,4.1,92,0.00,,,0.00,WUHU216DAVISVP2,2013-10-28 07:27:00,
2013-10-28 02:32:00,69.1,66.7,29.96,East,95,1.4,3.0,92,0.00,,,0.00,WUHU216DAVISVP2,2013-10-28 07:32:00,
2013-10-28 02:37:00,69.2,66.8,29.96,East,95,0.0,3.0,92,0.00,,,0.00,WUHU216DAVISVP2,2013-10-28 07:37:00,
2013-10-28 02:42:00,69.2,67.1,29.96,East,101,0.0,3.0,93,0.00,,,0.00,WUHU216DAVISVP2,2013-10-28 07:42:00,
2013-10-28 02:47:00,69.2,67.0,29.96,East,101,0.0,2.7,93,0.00,,,0.00,WUHU216DAVISVP2,2013-10-28 07:47:00,
2013-10-28 02:52:00,69.2,67.0,29.95,East,101,1.4,2.7,93,0.00,,,0.00,WUHU216DAVISVP2,2013-10-28 07:52:00,
2013-10-28 02:57:00,69.3,67.1,29.96,East,101,0.0,2.7,93,0.00,,,0.00,WUHU216DAVISVP2,2013-10-28 07:57:00,
2013-10-28 03:02:00,69.1,67.0,29.96,East,101,0.0,2.0,93,0.00,,,0.00,WUHU216DAVISVP2,2013-10-28 08:02:00,
2013-10-28 03:07:00,69.2,67.1,29.96,East,101,0.0,2.0,93,0.00,,,0.00,WUHU216DAVISVP2,2013-10-28 08:07:00,
2013-10-28 03:12:00,69.2,67.1,29.96,East,101,0.0,1.0,93,0.00,,,0.00,WUHU216DAVISVP2,2013-10-28 08:12:00,
2013-10-28 03:17:00,69.2,67.0,29.96,East,101,0.0,1.0,93,0.00,,,0.00,WUHU216DAVISVP2,2013-10-28 08:17:00,
2013-10-28 03:22:00,69.3,67.1,29.95,East,101,0.0,1.4,93,0.00,,,0.00,WUHU216DAVISVP2,2013-10-28 08:22:00,
2013-10-28 03:27:00,69.2,67.1,29.95,East,101,0.0,1.4,93,0.00,,,0.00,WUHU216DAVISVP2,2013-10-28 08:27:00,
2013-10-28 03:32:00,69.2,67.1,29.95,East,101,0.0,1.4,93,0.00,,,0.00,WUHU216DAVISVP2,2013-10-28 08:32:00,
2013-10-28 03:37:00,69.3,67.2,29.95,East,101,0.0,1.0,93,0.00,,,0.00,WUHU216DAVISVP2,2013-10-28 08:37:00,
2013-10-28 03:42:00,69.3,67.1,29.95,East,101,0.0,1.0,93,0.00,,,0.00,WUHU216DAVISVP2,2013-10-28 08:42:00,
2013-10-28 03:47:00,69.3,67.1,29.95,East,101,0.0,0.0,93,0.00,,,0.00,WUHU216DAVISVP2,2013-10-28 08:47:00,
2013-10-28 03:52:00,69.3,67.2,29.95,East,101,0.0,0.0,93,0.00,,,0.00,WUHU216DAVISVP2,2013-10-28 08:52:00,
2013-10-28 03:57:00,69.3,67.2,29.95,East,101,0.0,1.0,93,0.00,,,0.00,WUHU216DAVISVP2,2013-10-28 08:57:00,
2013-10-28 04:02:00,69.4,67.2,29.95,East,101,0.0,1.0,93,0.00,,,0.00,WUHU216DAVISVP2,2013-10-28 09:02:00,
2013-10-28 04:07:00,69.4,67.2,29.95,East,101,0.0,1.4,93,0.00,,,0.00,WUHU216DAVISVP2,2013-10-28 09:07:00,
2013-10-28 04:12:00,69.3,67.2,29.95,East,101,0.0,1.4,93,0.00,,,0.00,WUHU216DAVISVP2,2013-10-28 09:12:00,
2013-10-28 04:17:00,69.3,67.2,29.95,East,101,0.0,1.0,93,0.00,,,0.00,WUHU216DAVISVP2,2013-10-28 09:17:00,
2013-10-28 04:22:00,69.3,67.4,29.95,East,101,0.0,1.0,94,0.00,,,0.00,WUHU216DAVISVP2,2013-10-28 09:22:00,
2013-10-28 04:27:00,69.2,67.4,29.95,East,101,0.0,1.0,94,0.00,,,0.00,WUHU216DAVISVP2,2013-10-28 09:27:00,
2013-10-28 04:32:00,69.2,67.4,29.95,East,101,0.0,0.0,94,0.00,,,0.00,WUHU216DAVISVP2,2013-10-28 09:32:00,
2013-10-28 04:37:00,69.2,67.3,29.95,East,101,0.0,0.0,94,0.00,,,0.00,WUHU216DAVISVP2,2013-10-28 09:37:00,
2013-10-28 04:42:00,69.2,67.3,29.95,East,101,0.0,0.0,94,0.00,,,0.00,WUHU216DAVISVP2,2013-10-28 09:42:00,
2013-10-28 04:47:00,69.1,67.3,29.95,East,101,0.0,1.4,94,0.00,,,0.00,WUHU216DAVISVP2,2013-10-28 09:47:00,
2013-10-28 04:52:00,69.2,67.4,29.95,East,101,0.0,1.4,94,0.00,,,0.00,WUHU216DAVISVP2,2013-10-28 09:52:00,
2013-10-28 04:57:00,69.2,67.3,29.95,East,101,0.0,1.0,94,0.00,,,0.00,WUHU216DAVISVP2,2013-10-28 09:57:00,
2013-10-28 05:02:00,69.2,67.4,29.95,East,101,0.0,1.0,94,0.00,,,0.00,WUHU216DAVISVP2,2013-10-28 10:02:00,
2013-10-28 05:07:00,69.2,67.4,29.95,East,101,0.0,1.0,94,0.00,,,0.00,WUHU216DAVISVP2,2013-10-28 10:07:00,
2013-10-28 05:12:00,69.2,67.3,29.95,East,101,0.0,1.0,94,0.00,,,0.00,WUHU216DAVISVP2,2013-10-28 10:12:00,
2013-10-28 05:17:00,69.2,67.4,29.95,East,101,0.0,1.0,94,0.00,,,0.00,WUHU216DAVISVP2,2013-10-28 10:17:00,
2013-10-28 05:22:00,69.2,67.4,29.95,East,101,0.0,1.0,94,0.00,,,0.00,WUHU216DAVISVP2,2013-10-28 10:22:00,
2013-10-28 05:27:00,69.2,67.3,29.95,East,101,0.0,1.0,94,0.00,,,0.00,WUHU216DAVISVP2,2013-10-28 10:27:00,
2013-10-28 05:32:00,69.2,67.4,29.95,East,101,0.0,0.0,94,0.00,,,0.00,WUHU216DAVISVP2,2013-10-28 10:32:00,
2013-10-28 05:37:00,69.2,67.4,29.95,East,101,0.0,0.0,94,0.00,,,0.00,WUHU216DAVISVP2,2013-10-28 10:37:00,
2013-10-28 05:42:00,69.2,67.4,29.96,East,101,0.0,0.0,94,0.00,,,0.00,WUHU216DAVISVP2,2013-10-28 10:42:00,
2013-10-28 05:47:00,69.2,67.4,29.96,East,101,0.0,0.0,94,0.00,,,0.00,WUHU216DAVISVP2,2013-10-28 10:47:00,
2013-10-28 05:52:00,69.3,67.4,29.96,East,101,0.0,0.0,94,0.00,,,0.00,WUHU216DAVISVP2,2013-10-28 10:52:00,
2013-10-28 05:57:00,69.3,67.5,29.96,East,101,0.0,0.0,94,0.00,,,0.00,WUHU216DAVISVP2,2013-10-28 10:57:00,
2013-10-28 06:02:00,69.3,67.5,29.96,East,101,0.0,0.0,94,0.00,,,0.00,WUHU216DAVISVP2,2013-10-28 11:02:00,
2013-10-28 06:07:00,69.3,67.4,29.96,East,101,0.0,0.0,94,0.00,,,0.00,WUHU216DAVISVP2,2013-10-28 11:07:00,
2013-10-28 06:12:00,69.2,67.4,29.96,East,101,0.0,0.0,94,0.00,,,0.00,WUHU216DAVISVP2,2013-10-28 11:12:00,
2013-10-28 06:17:00,69.2,67.4,29.96,East,101,0.0,0.0,94,0.00,,,0.00,WUHU216DAVISVP2,2013-10-28 11:17:00,
2013-10-28 06:22:00,69.2,67.3,29.96,East,101,0.0,0.0,94,0.00,,,0.00,WUHU216DAVISVP2,2013-10-28 11:22:00,
2013-10-28 06:27:00,69.1,67.3,29.96,East,101,0.0,0.0,94,0.00,,,0.00,WUHU216DAVISVP2,2013-10-28 11:27:00,
2013-10-28 06:32:00,69.1,67.6,29.96,East,101,0.0,0.0,95,0.00,,,0.00,WUHU216DAVISVP2,2013-10-28 11:32:00,
2013-10-28 06:37:00,69.0,67.5,29.96,East,101,0.0,0.0,95,0.00,,,0.00,WUHU216DAVISVP2,2013-10-28 11:37:00,
2013-10-28 06:42:00,69.0,67.5,29.96,East,101,0.0,0.0,95,0.00,,,0.00,WUHU216DAVISVP2,2013-10-28 11:42:00,
2013-10-28 06:47:00,69.0,67.5,29.96,East,101,0.0,0.0,95,0.00,,,0.00,WUHU216DAVISVP2,2013-10-28 11:47:00,
2013-10-28 06:52:00,68.9,67.4,29.96,East,101,0.0,0.0,95,0.00,,,0.00,WUHU216DAVISVP2,2013-10-28 11:52:00,
2013-10-28 06:57:00,68.9,67.4,29.96,East,101,0.0,0.0,95,0.00,,,0.00,WUHU216DAVISVP2,2013-10-28 11:57:00,
2013-10-28 07:02:00,68.9,67.4,29.97,East,101,0.0,0.0,95,0.00,,,0.00,WUHU216DAVISVP2,2013-10-28 12:02:00,
2013-10-28 07:07:00,68.9,67.4,29.96,East,101,0.0,0.0,95,0.00,,,0.00,WUHU216DAVISVP2,2013-10-28 12:07:00,
2013-10-28 07:12:00,68.9,67.4,29.97,East,101,0.0,0.0,95,0.00,,,0.00,WUHU216DAVISVP2,2013-10-28 12:12:00,
2013-10-28 07:17:00,69.0,67.5,29.97,East,101,0.0,0.0,95,0.00,,,0.00,WUHU216DAVISVP2,2013-10-28 12:17:00,
2013-10-28 07:22:00,69.0,67.5,29.97,East,101,0.0,0.0,95,0.00,,,0.00,WUHU216DAVISVP2,2013-10-28 12:22:00,
2013-10-28 07:27:00,69.0,67.8,29.97,East,101,0.0,0.0,96,0.00,,,0.00,WUHU216DAVISVP2,2013-10-28 12:27:00,
2013-10-28 07:32:00,69.1,67.9,29.97,East,101,0.0,0.0,96,0.00,,,0.00,WUHU216DAVISVP2,2013-10-28 12:32:00,
2013-10-28 07:37:00,69.2,68.0,29.97,East,101,0.0,0.0,96,0.00,,,0.00,WUHU216DAVISVP2,2013-10-28 12:37:00,
2013-10-28 07:42:00,69.2,68.0,29.98,East,101,0.0,0.0,96,0.00,,,0.00,WUHU216DAVISVP2,2013-10-28 12:42:00,
2013-10-28 07:47:00,69.5,68.3,29.98,ESE,103,1.4,2.7,96,0.00,,,0.00,WUHU216DAVISVP2,2013-10-28 12:47:00,
2013-10-28 07:52:00,69.7,68.5,29.98,SE,143,2.7,3.0,96,0.00,,,0.00,WUHU216DAVISVP2,2013-10-28 12:52:00,
2013-10-28 07:57:00,69.9,68.7,29.98,SE,143,1.4,4.1,96,0.00,,,0.00,WUHU216DAVISVP2,2013-10-28 12:57:00,
2013-10-28 08:02:00,70.0,68.8,29.98,SE,146,4.1,5.4,96,0.00,,,0.00,WUHU216DAVISVP2,2013-10-28 13:02:00,
2013-10-28 08:08:00,70.1,68.9,29.99,SE,146,0.0,5.4,96,0.00,,,0.00,WUHU216DAVISVP2,2013-10-28 13:08:00,
2013-10-28 08:13:00,70.2,69.0,29.98,SE,145,2.7,4.1,96,0.00,,,0.00,WUHU216DAVISVP2,2013-10-28 13:13:00,
2013-10-28 08:18:00,70.3,68.8,29.98,SSE,156,1.4,4.1,95,0.00,,,0.00,WUHU216DAVISVP2,2013-10-28 13:18:00,
2013-10-28 08:23:00,70.5,69.0,29.99,SSE,155,0.0,4.1,95,0.00,,,0.00,WUHU216DAVISVP2,2013-10-28 13:23:00,
2013-10-28 08:28:00,70.7,69.2,29.99,SSE,168,0.0,4.1,95,0.00,,,0.00,WUHU216DAVISVP2,2013-10-28 13:28:00,
2013-10-28 08:33:00,70.7,69.2,29.99,South,171,0.0,3.0,95,0.00,,,0.00,WUHU216DAVISVP2,2013-10-28 13:33:00,
2013-10-28 08:38:00,70.9,69.1,29.99,South,169,0.0,5.4,94,0.00,,,0.00,WUHU216DAVISVP2,2013-10-28 13:38:00,
2013-10-28 08:43:00,71.0,69.2,30.00,SSE,166,2.7,5.4,94,0.00,,,0.00,WUHU216DAVISVP2,2013-10-28 13:43:00,
2013-10-28 08:48:00,71.1,69.3,30.00,SSE,166,1.4,5.4,94,0.00,,,0.00,WUHU216DAVISVP2,2013-10-28 13:48:00,
2013-10-28 08:53:00,71.2,69.4,30.00,SSE,148,1.4,5.4,94,0.00,,,0.00,WUHU216DAVISVP2,2013-10-28 13:53:00,
2013-10-28 08:58:00,71.4,69.2,30.00,SSW,196,4.1,6.8,93,0.00,,,0.00,WUHU216DAVISVP2,2013-10-28 13:58:00,
2013-10-28 09:03:00,71.5,69.3,30.00,SSE,168,2.7,6.8,93,0.00,,,0.00,WUHU216DAVISVP2,2013-10-28 14:03:00,
2013-10-28 09:08:00,71.7,69.5,30.01,SSE,149,4.1,6.8,93,0.00,,,0.00,WUHU216DAVISVP2,2013-10-28 14:08:00,
2013-10-28 09:13:00,71.9,69.7,30.01,South,171,2.7,6.8,93,0.00,,,0.00,WUHU216DAVISVP2,2013-10-28 14:13:00,
2013-10-28 09:18:00,72.0,69.5,30.01,SSE,159,1.4,6.8,92,0.00,,,0.00,WUHU216DAVISVP2,2013-10-28 14:18:00,
2013-10-28 09:23:00,72.2,69.7,30.01,SE,128,9.4,9.4,92,0.00,,,0.00,WUHU216DAVISVP2,2013-10-28 14:23:00,
2013-10-28 09:28:00,72.6,69.8,30.02,SE,143,2.7,9.4,91,0.00,,,0.00,WUHU216DAVISVP2,2013-10-28 14:28:00,
2013-10-28 09:33:00,72.8,70.0,30.02,South,169,4.1,8.1,91,0.00,,,0.00,WUHU216DAVISVP2,2013-10-28 14:33:00,
2013-10-28 09:38:00,72.9,69.8,30.02,South,172,2.7,6.8,90,0.00,,,0.00,WUHU216DAVISVP2,2013-10-28 14:38:00,
2013-10-28 09:43:00,72.9,69.8,30.02,South,183,4.1,9.4,90,0.00,,,0.00,WUHU216DAVISVP2,2013-10-28 14:43:00,
2013-10-28 09:48:00,73.0,69.9,30.02,SSE,166,2.7,9.4,90,0.00,,,0.00,WUHU216DAVISVP2,2013-10-28 14:48:00,
2013-10-28 09:53:00,73.1,69.7,30.02,South,176,2.7,9.4,89,0.00,,,0.00,WUHU216DAVISVP2,2013-10-28 14:53:00,
2013-10-28 09:58:00,73.4,70.3,30.02,SSE,147,2.7,9.4,90,0.00,,,0.00,WUHU216DAVISVP2,2013-10-28 14:58:00,
2013-10-28 10:03:00,73.9,70.1,30.02,SSE,166,4.1,8.1,88,0.00,,,0.00,WUHU216DAVISVP2,2013-10-28 15:03:00,
2013-10-28 10:08:00,74.0,70.2,30.03,SE,145,6.8,8.1,88,0.00,,,0.00,WUHU216DAVISVP2,2013-10-28 15:08:00,
2013-10-28 10:13:00,74.0,69.9,30.03,SSE,154,2.7,10.8,87,0.00,,,0.00,WUHU216DAVISVP2,2013-10-28 15:13:00,
2013-10-28 10:18:00,74.0,69.9,30.03,SSE,147,4.1,12.1,87,0.00,,,0.00,WUHU216DAVISVP2,2013-10-28 15:18:00,
2013-10-28 10:23:00,74.1,70.3,30.03,SSE,157,1.4,12.1,88,0.00,,,0.00,WUHU216DAVISVP2,2013-10-28 15:23:00,
2013-10-28 10:28:00,74.3,70.2,30.03,SSE,151,4.1,10.0,87,0.00,,,0.00,WUHU216DAVISVP2,2013-10-28 15:28:00,
2013-10-28 10:33:00,74.7,70.6,30.03,SSE,158,5.4,10.0,87,0.00,,,0.00,WUHU216DAVISVP2,2013-10-28 15:33:00,
2013-10-28 10:38:00,74.9,70.1,30.03,SE,137,10.8,14.9,85,0.00,,,0.00,WUHU216DAVISVP2,2013-10-28 15:38:00,
2013-10-28 10:43:00,74.9,70.1,30.03,SSE,153,4.1,14.9,85,0.00,,,0.00,WUHU216DAVISVP2,2013-10-28 15:43:00,
2013-10-28 10:48:00,75.2,70.7,30.02,SSE,166,4.1,12.1,86,0.00,,,0.00,WUHU216DAVISVP2,2013-10-28 15:48:00,
2013-10-28 10:53:00,75.9,70.4,30.02,South,174,5.4,11.0,83,0.00,,,0.00,WUHU216DAVISVP2,2013-10-28 15:53:00,
2013-10-28 10:58:00,75.9,70.4,30.02,South,169,6.8,10.8,83,0.00,,,0.00,WUHU216DAVISVP2,2013-10-28 15:58:00,
2013-10-28 11:03:00,76.1,70.6,30.02,SSE,153,5.4,10.8,83,0.00,,,0.00,WUHU216DAVISVP2,2013-10-28 16:03:00,
2013-10-28 11:08:00,76.9,71.1,30.02,SSE,159,5.4,10.8,82,0.00,,,0.00,WUHU216DAVISVP2,2013-10-28 16:08:00,
2013-10-28 11:14:00,76.8,70.6,30.02,SSE,155,6.8,10.8,81,0.00,,,0.00,WUHU216DAVISVP2,2013-10-28 16:14:00,
2013-10-28 11:19:00,76.5,70.7,30.02,SE,128,6.8,9.4,82,0.00,,,0.00,WUHU216DAVISVP2,2013-10-28 16:19:00,
2013-10-28 11:24:00,76.4,70.6,30.02,ESE,120,2.7,8.1,82,0.00,,,0.00,WUHU216DAVISVP2,2013-10-28 16:24:00,
2013-10-28 11:29:00,76.3,70.5,30.02,SSE,165,4.1,8.1,82,0.00,,,0.00,WUHU216DAVISVP2,2013-10-28 16:29:00,
2013-10-28 11:34:00,76.7,70.9,30.02,SSE,155,6.8,8.1,82,0.00,,,0.00,WUHU216DAVISVP2,2013-10-28 16:34:00,
2013-10-28 11:39:00,76.9,70.7,30.02,South,184,6.8,10.8,81,0.00,,,0.00,WUHU216DAVISVP2,2013-10-28 16:39:00,
2013-10-28 11:44:00,77.1,70.6,30.01,SE,146,5.4,10.8,80,0.00,,,0.00,WUHU216DAVISVP2,2013-10-28 16:44:00,
2013-10-28 11:49:00,77.1,70.9,30.01,South,176,4.1,9.4,81,0.00,,,0.00,WUHU216DAVISVP2,2013-10-28 16:49:00,
2013-10-28 11:54:00,77.3,70.4,30.01,SE,139,5.4,9.4,79,0.00,,,0.00,WUHU216DAVISVP2,2013-10-28 16:54:00,
2013-10-28 11:59:00,77.1,70.2,30.01,SSE,166,2.7,9.4,79,0.00,,,0.00,WUHU216DAVISVP2,2013-10-28 16:59:00,
2013-10-28 12:04:00,77.1,70.2,30.01,South,177,0.0,8.0,79,0.00,,,0.00,WUHU216DAVISVP2,2013-10-28 17:04:00,
2013-10-28 12:09:00,77.3,70.3,30.01,South,171,4.1,8.0,79,0.00,,,0.00,WUHU216DAVISVP2,2013-10-28 17:09:00,
2013-10-28 12:14:00,77.6,70.6,30.01,SSE,157,6.8,8.1,79,0.00,,,0.00,WUHU216DAVISVP2,2013-10-28 17:14:00,
2013-10-28 12:19:00,78.8,71.0,30.00,SSE,147,5.4,8.1,77,0.00,,,0.00,WUHU216DAVISVP2,2013-10-28 17:19:00,
2013-10-28 12:24:00,79.4,70.6,30.00,SSE,164,8.1,13.5,74,0.00,,,0.00,WUHU216DAVISVP2,2013-10-28 17:24:00,
2013-10-28 12:29:00,79.5,71.4,30.00,SSE,153,4.1,13.5,76,0.00,,,0.00,WUHU216DAVISVP2,2013-10-28 17:29:00,
2013-10-28 12:34:00,80.2,70.6,30.00,SE,138,4.1,12.1,72,0.00,,,0.00,WUHU216DAVISVP2,2013-10-28 17:34:00,
2013-10-28 12:39:00,80.5,70.4,30.00,SSE,159,5.4,14.9,71,0.00,,,0.00,WUHU216DAVISVP2,2013-10-28 17:39:00,
2013-10-28 12:44:00,79.7,69.7,30.00,SSE,164,6.8,14.9,71,0.00,,,0.00,WUHU216DAVISVP2,2013-10-28 17:44:00,
2013-10-28 12:49:00,79.9,69.9,29.99,SE,139,4.1,12.1,71,0.00,,,0.00,WUHU216DAVISVP2,2013-10-28 17:49:00,
2013-10-28 12:54:00,80.0,70.4,29.99,South,185,5.4,12.1,72,0.00,,,0.00,WUHU216DAVISVP2,2013-10-28 17:54:00,
2013-10-28 12:59:00,80.3,69.0,29.99,South,188,5.4,13.5,68,0.00,,,0.00,WUHU216DAVISVP2,2013-10-28 17:59:00,
2013-10-28 13:04:00,80.0,69.1,29.99,South,179,8.1,13.5,69,0.00,,,0.00,WUHU216DAVISVP2,2013-10-28 18:04:00,
2013-10-28 13:09:00,79.9,69.0,29.99,SSE,156,4.1,12.1,69,0.00,,,0.00,WUHU216DAVISVP2,2013-10-28 18:09:00,
2013-10-28 13:14:00,80.3,69.8,29.98,SE,143,5.4,12.0,70,0.00,,,0.00,WUHU216DAVISVP2,2013-10-28 18:14:00,
2013-10-28 13:19:00,80.7,69.2,29.98,SSE,149,6.8,12.0,68,0.00,,,0.00,WUHU216DAVISVP2,2013-10-28 18:19:00,
2013-10-28 13:24:00,80.6,69.1,29.98,ESE,116,2.7,12.1,68,0.00,,,0.00,WUHU216DAVISVP2,2013-10-28 18:24:00,
2013-10-28 13:29:00,80.5,69.6,29.97,SE,131,1.4,12.1,69,0.00,,,0.00,WUHU216DAVISVP2,2013-10-28 18:29:00,
2013-10-28 13:34:00,81.5,69.7,29.97,SSE,162,4.1,10.0,67,0.00,,,0.00,WUHU216DAVISVP2,2013-10-28 18:34:00,
2013-10-28 13:39:00,81.1,69.3,29.97,South,170,4.1,12.1,67,0.00,,,0.00,WUHU216DAVISVP2,2013-10-28 18:39:00,
2013-10-28 13:44:00,81.3,69.1,29.96,ESE,122,4.1,12.1,66,0.00,,,0.00,WUHU216DAVISVP2,2013-10-28 18:44:00,
2013-10-28 13:49:00,80.9,69.6,29.96,SSE,156,4.1,10.8,68,0.00,,,0.00,WUHU216DAVISVP2,2013-10-28 18:49:00,
2013-10-28 13:54:00,81.4,69.2,29.96,ESE,118,4.1,10.8,66,0.00,,,0.00,WUHU216DAVISVP2,2013-10-28 18:54:00,
2013-10-28 13:59:00,82.1,69.4,29.96,ESE,113,5.4,10.8,65,0.00,,,0.00,WUHU216DAVISVP2,2013-10-28 18:59:00,
2013-10-28 14:04:00,81.5,68.4,29.95,SSE,166,9.4,10.0,64,0.00,,,0.00,WUHU216DAVISVP2,2013-10-28 19:04:00,
2013-10-28 14:09:00,81.0,68.4,29.95,SSE,160,4.1,16.2,65,0.00,,,0.00,WUHU216DAVISVP2,2013-10-28 19:09:00,
2013-10-28 14:14:00,81.0,68.8,29.94,ESE,118,10.8,16.2,66,0.00,,,0.00,WUHU216DAVISVP2,2013-10-28 19:14:00,
2013-10-28 14:19:00,81.9,68.3,29.94,SSE,164,5.4,16.2,63,0.00,,,0.00,WUHU216DAVISVP2,2013-10-28 19:19:00,
2013-10-28 14:24:00,82.6,68.3,29.94,SSE,155,9.4,16.2,62,0.00,,,0.00,WUHU216DAVISVP2,2013-10-28 19:24:00,
2013-10-28 14:29:00,83.0,68.6,29.93,SSE,163,4.1,13.5,62,0.00,,,0.00,WUHU216DAVISVP2,2013-10-28 19:29:00,
2013-10-28 14:34:00,83.8,68.7,29.93,SE,145,12.1,13.5,60,0.00,,,0.00,WUHU216DAVISVP2,2013-10-28 19:34:00,
2013-10-28 14:39:00,82.5,67.5,29.93,SSE,150,9.4,16.2,60,0.00,,,0.00,WUHU216DAVISVP2,2013-10-28 19:39:00,
2013-10-28 14:44:00,81.8,67.3,29.93,SSE,157,5.4,16.2,61,0.00,,,0.00,WUHU216DAVISVP2,2013-10-28 19:44:00,
2013-10-28 14:49:00,82.5,67.9,29.93,SE,144,5.4,12.0,61,0.00,,,0.00,WUHU216DAVISVP2,2013-10-28 19:49:00,
2013-10-28 14:54:00,82.8,67.3,29.92,SSE,153,10.8,14.9,59,0.00,,,0.00,WUHU216DAVISVP2,2013-10-28 19:54:00,
2013-10-28 14:59:00,83.4,68.3,29.92,SE,133,5.4,14.9,60,0.00,,,0.00,WUHU216DAVISVP2,2013-10-28 19:59:00,
2013-10-28 15:04:00,83.4,68.3,29.92,SE,143,6.8,13.5,60,0.00,,,0.00,WUHU216DAVISVP2,2013-10-28 20:04:00,
2013-10-28 15:09:00,82.9,67.3,29.92,SE,128,10.8,14.9,59,0.00,,,0.00,WUHU216DAVISVP2,2013-10-28 20:09:00,
2013-10-28 15:14:00,82.2,67.2,29.92,SE,135,8.1,16.2,60,0.00,,,0.00,WUHU216DAVISVP2,2013-10-28 20:14:00,
2013-10-28 15:19:00,82.0,67.5,29.92,SSE,155,6.8,16.2,61,0.00,,,0.00,WUHU216DAVISVP2,2013-10-28 20:19:00,
2013-10-28 15:24:00,82.2,67.4,29.92,SE,145,8.1,14.9,61,0.00,,,0.00,WUHU216DAVISVP2,2013-10-28 20:24:00,
2013-10-28 15:29:00,82.3,68.0,29.92,SSE,160,4.1,13.5,62,0.00,,,0.00,WUHU216DAVISVP2,2013-10-28 20:29:00,
2013-10-28 15:34:00,82.7,67.9,29.92,ESE,120,6.8,13.5,61,0.00,,,0.00,WUHU216DAVISVP2,2013-10-28 20:34:00,
2013-10-28 15:39:00,82.9,68.1,29.92,ESE,115,4.1,12.1,61,0.00,,,0.00,WUHU216DAVISVP2,2013-10-28 20:39:00,
2013-10-28 15:44:00,83.7,69.1,29.92,SSE,163,9.4,13.5,61,0.00,,,0.00,WUHU216DAVISVP2,2013-10-28 20:44:00,
2013-10-28 15:49:00,84.4,68.3,29.92,SSE,161,6.8,13.5,58,0.00,,,0.00,WUHU216DAVISVP2,2013-10-28 20:49:00,
2013-10-28 15:54:00,83.5,67.4,29.92,SSE,153,4.1,13.5,58,0.00,,,0.00,WUHU216DAVISVP2,2013-10-28 20:54:00,
2013-10-28 15:59:00,83.1,68.5,29.92,East,97,6.8,12.1,61,0.00,,,0.00,WUHU216DAVISVP2,2013-10-28 20:59:00,
2013-10-28 16:04:00,83.7,68.1,29.91,SSE,151,4.1,11.0,59,0.00,,,0.00,WUHU216DAVISVP2,2013-10-28 21:04:00,
2013-10-28 16:09:00,83.9,67.8,29.92,SE,139,5.4,12.1,58,0.00,,,0.00,WUHU216DAVISVP2,2013-10-28 21:09:00,
2013-10-28 16:14:00,83.9,67.3,29.92,SSE,147,6.8,12.1,57,0.00,,,0.00,WUHU216DAVISVP2,2013-10-28 21:14:00,
2013-10-28 16:19:00,84.1,68.0,29.91,SSE,168,8.1,12.1,58,0.00,,,0.00,WUHU216DAVISVP2,2013-10-28 21:19:00,
2013-10-28 16:24:00,83.9,67.8,29.91,SSE,153,9.4,14.9,58,0.00,,,0.00,WUHU216DAVISVP2,2013-10-28 21:24:00,
2013-10-28 16:29:00,83.9,67.8,29.91,South,174,8.1,14.9,58,0.00,,,0.00,WUHU216DAVISVP2,2013-10-28 21:29:00,
2013-10-28 16:34:00,83.8,67.7,29.91,East,99,4.1,12.1,58,0.00,,,0.00,WUHU216DAVISVP2,2013-10-28 21:34:00,
2013-10-28 16:39:00,84.5,68.3,29.91,East,89,9.4,12.1,58,0.00,,,0.00,WUHU216DAVISVP2,2013-10-28 21:39:00,
2013-10-28 16:44:00,84.7,68.3,29.91,East,94,9.4,12.1,58,0.00,,,0.00,WUHU216DAVISVP2,2013-10-28 21:44:00,
2013-10-28 16:49:00,84.6,68.7,29.91,ESE,122,12.1,13.5,59,0.00,,,0.00,WUHU216DAVISVP2,2013-10-28 21:49:00,
2013-10-28 16:54:00,83.6,68.2,29.91,ESE,113,10.8,13.5,60,0.00,,,0.00,WUHU216DAVISVP2,2013-10-28 21:54:00,
2013-10-28 16:59:00,83.3,68.0,29.90,SE,135,5.4,13.5,60,0.00,,,0.00,WUHU216DAVISVP2,2013-10-28 21:59:00,
2013-10-28 17:04:00,82.8,68.0,29.90,ESE,102,8.1,13.5,61,0.00,,,0.00,WUHU216DAVISVP2,2013-10-28 22:04:00,
2013-10-28 17:09:00,82.5,68.4,29.91,SE,127,2.7,12.1,62,0.00,,,0.00,WUHU216DAVISVP2,2013-10-28 22:09:00,
2013-10-28 17:14:00,82.5,68.4,29.91,SSE,168,5.4,13.5,62,0.00,,,0.00,WUHU216DAVISVP2,2013-10-28 22:14:00,
2013-10-28 17:19:00,82.5,68.4,29.91,ESE,113,5.4,13.5,62,0.00,,,0.00,WUHU216DAVISVP2,2013-10-28 22:19:00,
2013-10-28 17:24:00,82.4,68.8,29.91,ESE,110,4.1,12.1,63,0.00,,,0.00,WUHU216DAVISVP2,2013-10-28 22:24:00,
2013-10-28 17:29:00,82.3,68.7,29.91,SE,139,10.8,10.8,63,0.00,,,0.00,WUHU216DAVISVP2,2013-10-28 22:29:00,
2013-10-28 17:34:00,82.1,68.5,29.91,ESE,119,4.1,12.1,63,0.00,,,0.00,WUHU216DAVISVP2,2013-10-28 22:34:00,
2013-10-28 17:39:00,82.0,68.4,29.91,SE,143,2.7,12.1,63,0.00,,,0.00,WUHU216DAVISVP2,2013-10-28 22:39:00,
2013-10-28 17:44:00,82.1,68.5,29.91,ESE,113,2.7,12.1,63,0.00,,,0.00,WUHU216DAVISVP2,2013-10-28 22:44:00,
2013-10-28 17:49:00,82.2,68.1,29.91,SE,126,5.4,12.1,62,0.00,,,0.00,WUHU216DAVISVP2,2013-10-28 22:49:00,
2013-10-28 17:54:00,82.1,68.5,29.91,SE,132,6.8,12.1,63,0.00,,,0.00,WUHU216DAVISVP2,2013-10-28 22:54:00,
2013-10-28 17:59:00,82.0,68.4,29.91,South,177,10.8,13.5,63,0.00,,,0.00,WUHU216DAVISVP2,2013-10-28 22:59:00,
2013-10-28 18:04:00,81.9,68.3,29.91,SE,124,13.5,13.5,63,0.00,,,0.00,WUHU216DAVISVP2,2013-10-28 23:04:00,
2013-10-28 18:09:00,81.6,68.0,29.91,SSE,147,6.8,13.5,63,0.00,,,0.00,WUHU216DAVISVP2,2013-10-28 23:09:00,
2013-10-28 18:14:00,81.4,68.3,29.91,SE,146,6.8,13.5,64,0.00,,,0.00,WUHU216DAVISVP2,2013-10-28 23:14:00,
2013-10-28 18:19:00,81.1,68.0,29.91,ESE,105,8.1,11.0,64,0.00,,,0.00,WUHU216DAVISVP2,2013-10-28 23:19:00,
2013-10-28 18:24:00,80.9,67.8,29.91,SE,142,6.8,14.9,64,0.00,,,0.00,WUHU216DAVISVP2,2013-10-28 23:24:00,
2013-10-28 18:29:00,80.7,67.6,29.91,SE,141,4.1,14.9,64,0.00,,,0.00,WUHU216DAVISVP2,2013-10-28 23:29:00,
2013-10-28 18:34:00,80.5,67.9,29.92,SE,131,2.7,13.5,65,0.00,,,0.00,WUHU216DAVISVP2,2013-10-28 23:34:00,
2013-10-28 18:39:00,80.3,67.7,29.92,SSE,151,9.4,12.1,65,0.00,,,0.00,WUHU216DAVISVP2,2013-10-28 23:39:00,
2013-10-28 18:44:00,80.2,68.1,29.92,SSE,149,9.4,10.8,66,0.00,,,0.00,WUHU216DAVISVP2,2013-10-28 23:44:00,
2013-10-28 18:49:00,79.9,68.2,29.92,SE,124,6.8,12.1,67,0.00,,,0.00,WUHU216DAVISVP2,2013-10-28 23:49:00,
2013-10-28 18:54:00,79.8,68.1,29.92,SSE,155,8.1,13.5,67,0.00,,,0.00,WUHU216DAVISVP2,2013-10-28 23:54:00,
2013-10-28 18:59:00,79.6,67.9,29.92,SSE,151,4.1,16.2,67,0.00,,,0.00,WUHU216DAVISVP2,2013-10-28 23:59:00,
2013-10-28 19:04:00,79.5,67.8,29.93,SSE,149,2.7,16.2,67,0.00,,,0.00,WUHU216DAVISVP2,2013-10-29 00:04:00,
2013-10-28 19:09:00,79.3,67.6,29.93,ESE,110,4.1,13.5,67,0.00,,,0.00,WUHU216DAVISVP2,2013-10-29 00:09:00,
2013-10-28 19:14:00,79.2,67.1,29.93,SE,128,5.4,13.5,66,0.00,,,0.00,WUHU216DAVISVP2,2013-10-29 00:14:00,
2013-10-28 19:19:00,79.0,66.9,29.93,SSE,153,6.8,12.1,66,0.00,,,0.00,WUHU216DAVISVP2,2013-10-29 00:19:00,
2013-10-28 19:24:00,79.1,66.6,29.93,South,174,8.1,16.2,65,0.00,,,0.00,WUHU216DAVISVP2,2013-10-29 00:24:00,
2013-10-28 19:29:00,79.0,66.5,29.94,SE,137,9.4,16.2,65,0.00,,,0.00,WUHU216DAVISVP2,2013-10-29 00:29:00,
2013-10-28 19:34:00,78.9,66.4,29.94,SE,133,6.8,16.2,65,0.00,,,0.00,WUHU216DAVISVP2,2013-10-29 00:34:00,
2013-10-28 19:39:00,78.6,66.5,29.94,SE,139,6.8,12.1,66,0.00,,,0.00,WUHU216DAVISVP2,2013-10-29 00:39:00,
2013-10-28 19:44:00,78.4,66.3,29.94,SE,144,2.7,13.5,66,0.00,,,0.00,WUHU216DAVISVP2,2013-10-29 00:44:00,
2013-10-28 19:49:00,78.3,66.2,29.94,SSE,153,10.8,18.9,66,0.00,,,0.00,WUHU216DAVISVP2,2013-10-29 00:49:00,
2013-10-28 19:54:00,78.2,66.1,29.95,SSE,159,8.1,18.9,66,0.00,,,0.00,WUHU216DAVISVP2,2013-10-29 00:54:00,
2013-10-28 19:59:00,78.1,66.0,29.94,ESE,113,4.1,13.5,66,0.00,,,0.00,WUHU216DAVISVP2,2013-10-29 00:59:00,
2013-10-28 20:04:00,77.9,65.9,29.94,SE,135,8.1,13.0,66,0.00,,,0.00,WUHU216DAVISVP2,2013-10-29 01:04:00,
2013-10-28 20:09:00,77.5,65.9,29.94,SE,133,10.8,12.0,67,0.00,,,0.00,WUHU216DAVISVP2,2013-10-29 01:09:00,
2013-10-28 20:14:00,77.4,66.2,29.94,SE,146,10.8,20.3,68,0.00,,,0.00,WUHU216DAVISVP2,2013-10-29 01:14:00,
2013-10-28 20:19:00,77.2,66.0,29.95,SSW,193,6.8,20.3,68,0.00,,,0.00,WUHU216DAVISVP2,2013-10-29 01:19:00,
2013-10-28 20:24:00,77.1,66.4,29.95,SE,140,6.8,16.2,69,0.00,,,0.00,WUHU216DAVISVP2,2013-10-29 01:24:00,
2013-10-28 20:29:00,76.8,66.1,29.95,SE,142,4.1,13.5,69,0.00,,,0.00,WUHU216DAVISVP2,2013-10-29 01:29:00,
2013-10-28 20:34:00,76.6,66.3,29.96,SE,135,8.1,12.1,70,0.00,,,0.00,WUHU216DAVISVP2,2013-10-29 01:34:00,
2013-10-28 20:39:00,76.5,66.6,29.96,SE,144,6.8,12.1,71,0.00,,,0.00,WUHU216DAVISVP2,2013-10-29 01:39:00,
2013-10-28 20:44:00,76.3,66.4,29.96,SE,139,6.8,12.1,71,0.00,,,0.00,WUHU216DAVISVP2,2013-10-29 01:44:00,
2013-10-28 20:49:00,76.2,66.3,29.97,South,177,5.4,12.1,71,0.00,,,0.00,WUHU216DAVISVP2,2013-10-29 01:49:00,
2013-10-28 20:54:00,76.1,66.6,29.97,ESE,116,5.4,12.1,72,0.00,,,0.00,WUHU216DAVISVP2,2013-10-29 01:54:00,
2013-10-28 20:59:00,76.1,66.6,29.97,SE,127,5.4,12.1,72,0.00,,,0.00,WUHU216DAVISVP2,2013-10-29 01:59:00,
2013-10-28 21:04:00,75.9,66.5,29.97,ESE,114,6.8,12.1,72,0.00,,,0.00,WUHU216DAVISVP2,2013-10-29 02:04:00,
2013-10-28 21:09:00,75.9,66.8,29.97,SSE,162,6.8,12.1,73,0.00,,,0.00,WUHU216DAVISVP2,2013-10-29 02:09:00,
2013-10-28 21:14:00,75.8,67.1,29.98,SE,130,5.4,14.9,74,0.00,,,0.00,WUHU216DAVISVP2,2013-10-29 02:14:00,
2013-10-28 21:19:00,75.8,67.0,29.98,ENE,76,4.1,14.9,74,0.00,,,0.00,WUHU216DAVISVP2,2013-10-29 02:19:00,
2013-10-28 21:24:00,75.6,67.3,29.98,SSE,149,4.1,14.9,75,0.00,,,0.00,WUHU216DAVISVP2,2013-10-29 02:24:00,
2013-10-28 21:29:00,75.5,67.2,29.98,SE,138,2.7,12.1,75,0.00,,,0.00,WUHU216DAVISVP2,2013-10-29 02:29:00,
2013-10-28 21:34:00,75.4,67.4,29.98,SSE,149,4.1,12.1,76,0.00,,,0.00,WUHU216DAVISVP2,2013-10-29 02:34:00,
2013-10-28 21:39:00,75.3,67.3,29.99,SE,142,2.7,10.8,76,0.00,,,0.00,WUHU216DAVISVP2,2013-10-29 02:39:00,
2013-10-28 21:44:00,75.1,67.6,29.99,ESE,117,1.4,10.0,77,0.00,,,0.00,WUHU216DAVISVP2,2013-10-29 02:44:00,
2013-10-28 21:49:00,75.0,67.5,29.99,SSE,153,4.1,7.0,77,0.00,,,0.00,WUHU216DAVISVP2,2013-10-29 02:49:00,
2013-10-28 21:54:00,74.9,67.7,29.99,SSE,148,2.7,10.8,78,0.00,,,0.00,WUHU216DAVISVP2,2013-10-29 02:54:00,
2013-10-28 21:59:00,74.8,68.0,29.99,SE,141,2.7,10.8,79,0.00,,,0.00,WUHU216DAVISVP2,2013-10-29 02:59:00,
2013-10-28 22:04:00,74.5,68.0,29.99,SE,143,5.4,12.1,80,0.00,,,0.00,WUHU216DAVISVP2,2013-10-29 03:04:00,
2013-10-28 22:09:00,74.2,68.1,29.99,SSE,152,4.1,12.1,81,0.00,,,0.00,WUHU216DAVISVP2,2013-10-29 03:09:00,
2013-10-28 22:14:00,74.0,68.2,29.99,SE,137,4.1,9.4,82,0.00,,,0.00,WUHU216DAVISVP2,2013-10-29 03:14:00,
2013-10-28 22:19:00,73.9,68.4,29.99,SSE,154,5.4,12.1,83,0.00,,,0.00,WUHU216DAVISVP2,2013-10-29 03:19:00,
2013-10-28 22:24:00,73.8,68.4,29.99,SSE,147,1.4,12.1,83,0.00,,,0.00,WUHU216DAVISVP2,2013-10-29 03:24:00,
2013-10-28 22:29:00,73.5,68.4,29.99,SE,139,2.7,9.0,84,0.00,,,0.00,WUHU216DAVISVP2,2013-10-29 03:29:00,
2013-10-28 22:34:00,73.5,68.5,29.99,SE,143,2.7,9.0,84,0.00,,,0.00,WUHU216DAVISVP2,2013-10-29 03:34:00,
2013-10-28 22:39:00,73.5,68.4,30.00,SE,133,2.7,6.8,84,0.00,,,0.00,WUHU216DAVISVP2,2013-10-29 03:39:00,
2013-10-28 22:44:00,73.3,68.6,30.00,SE,129,2.7,6.8,85,0.00,,,0.00,WUHU216DAVISVP2,2013-10-29 03:44:00,
2013-10-28 22:49:00,73.2,68.5,30.00,SE,132,5.4,8.1,85,0.00,,,0.00,WUHU216DAVISVP2,2013-10-29 03:49:00,
2013-10-28 22:54:00,73.2,68.4,30.00,SSE,150,1.4,8.1,85,0.00,,,0.00,WUHU216DAVISVP2,2013-10-29 03:54:00,
2013-10-28 22:59:00,73.0,68.6,30.00,SSE,152,2.7,6.0,86,0.00,,,0.00,WUHU216DAVISVP2,2013-10-29 03:59:00,
2013-10-28 23:01:00,72.9,68.5,30.00,ESE,120,1.4,6.0,86,0.00,,,0.00,WUHU216DAVISVP2,2013-10-29 04:01:00,
2013-10-28 23:06:00,72.8,68.4,30.00,SSE,150,4.1,5.4,86,0.00,,,0.00,WUHU216DAVISVP2,2013-10-29 04:06:00,
2013-10-28 23:11:00,72.8,68.4,30.00,SSE,152,1.4,8.1,86,0.00,,,0.00,WUHU216DAVISVP2,2013-10-29 04:11:00,
2013-10-28 23:16:00,72.8,68.4,30.00,SE,126,2.7,8.1,86,0.00,,,0.00,WUHU216DAVISVP2,2013-10-29 04:16:00,
2013-10-28 23:21:00,72.9,68.5,30.00,SE,126,5.4,6.8,86,0.00,,,0.00,WUHU216DAVISVP2,2013-10-29 04:21:00,
2013-10-28 23:26:00,72.9,68.5,30.00,SE,144,2.7,6.8,86,0.00,,,0.00,WUHU216DAVISVP2,2013-10-29 04:26:00,
2013-10-28 23:31:00,72.8,68.4,30.00,SE,139,5.4,6.8,86,0.00,,,0.00,WUHU216DAVISVP2,2013-10-29 04:31:00,
2013-10-28 23:36:00,72.9,68.4,30.00,SE,124,2.7,6.8,86,0.00,,,0.00,WUHU216DAVISVP2,2013-10-29 04:36:00,
2013-10-28 23:41:00,72.9,68.5,30.00,SE,125,2.7,6.8,86,0.00,,,0.00,WUHU216DAVISVP2,2013-10-29 04:41:00,
2013-10-28 23:46:00,72.7,68.3,30.00,SE,142,4.1,6.8,86,0.00,,,0.00,WUHU216DAVISVP2,2013-10-29 04:46:00,
2013-10-28 23:51:00,72.6,68.5,30.00,SE,139,5.4,8.1,87,0.00,,,0.00,WUHU216DAVISVP2,2013-10-29 04:51:00,
2013-10-28 23:56:00,72.6,68.6,30.00,SE,140,2.7,8.1,87,0.00,,,0.00,WUHU216DAVISVP2,2013-10-29 04:56:00,